Time;durP1;ratioP1;P1;durP2;ratioP2;P2;SDS_P1;SDS_P2;PMS_P1;PMS_P2;Temp;Humidity;BMP_temperature;BMP_pressure;BME280_temperature;BME280_humidity;BME280_pressure;Samples;Min_cycle;Max_cycle;Signal;HPM_P1;HPM_P2
2022/08/05 00:02:08;;;;;;;9.70;7.30;;;;;;;16.76;100.00;101429.94;5033136;28;20837;-44
2022/08/05 00:04:38;;;;;;;8.17;7.57;;;;;;;16.72;100.00;101431.44;5032014;28;20464;-41
2022/08/05 00:07:08;;;;;;;7.97;7.27;;;;;;;16.67;100.00;101431.25;5031711;28;20467;-44
2022/08/05 00:09:58;;;;;;;8.03;7.37;;;;;;;16.67;100.00;101425.88;5032117;28;20463;-41
2022/08/05 00:12:26;;;;;;;11.83;8.00;;;;;;;16.69;100.00;101429.19;5032459;28;20456;-42
2022/08/05 00:14:54;;;;;;;10.27;7.70;;;;;;;16.69;100.00;101428.34;5031985;28;20439;-42
2022/08/05 00:17:21;;;;;;;7.87;7.37;;;;;;;16.64;100.00;101444.31;5031259;28;20556;-42
2022/08/05 00:19:52;;;;;;;8.77;8.07;;;;;;;16.64;100.00;101447.84;5032159;28;20513;-42
2022/08/05 00:22:31;;;;;;;10.47;7.27;;;;;;;16.61;100.00;101434.81;5032294;28;20428;-40
2022/08/05 00:24:58;;;;;;;8.20;7.50;;;;;;;16.63;100.00;101442.69;5031534;28;20444;-45
2022/08/05 00:27:29;;;;;;;8.07;7.37;;;;;;;16.63;100.00;101446.22;5031377;28;20480;-42
2022/08/05 00:30:03;;;;;;;8.37;7.50;;;;;;;16.64;100.00;101455.94;5032642;28;20460;-42
2022/08/05 00:32:38;;;;;;;13.80;8.50;;;;;;;16.59;100.00;101450.38;5032602;28;20444;-41
2022/08/05 00:35:08;;;;;;;8.60;7.90;;;;;;;16.63;100.00;101458.84;5020929;28;20508;-42
2022/08/05 00:37:37;;;;;;;10.83;8.00;;;;;;;16.61;100.00;101477.09;5031268;28;20456;-41
2022/08/05 00:40:22;;;;;;;8.20;7.50;;;;;;;16.61;100.00;101485.97;5001628;28;20452;-41
2022/08/05 00:42:56;;;;;;;9.57;8.60;;;;;;;16.69;100.00;101491.13;5025897;28;21003;-45
2022/08/05 00:45:24;;;;;;;8.40;7.80;;;;;;;16.62;100.00;101493.03;5022099;28;20491;-41
2022/08/05 00:48:06;;;;;;;9.13;8.27;;;;;;;16.59;100.00;101490.78;5030335;28;20543;-43
2022/08/05 00:50:35;;;;;;;9.60;7.90;;;;;;;16.62;100.00;101493.03;5024225;28;20941;-40
2022/08/05 00:53:04;;;;;;;11.00;8.00;;;;;;;16.63;100.00;101516.25;5017564;28;20456;-41
2022/08/05 00:55:52;;;;;;;9.27;8.43;;;;;;;16.68;100.00;101519.09;5018943;28;20862;-43
2022/08/05 00:58:19;;;;;;;8.40;7.60;;;;;;;16.76;100.00;101516.13;5017242;28;20464;-42
2022/08/05 01:00:53;;;;;;;10.37;7.50;;;;;;;16.81;100.00;101524.41;5025058;28;20428;-43
2022/08/05 01:03:21;;;;;;;10.03;8.57;;;;;;;16.84;100.00;101534.75;5017629;28;20444;-43
2022/08/05 01:05:50;;;;;;;10.33;8.83;;;;;;;16.79;100.00;101534.53;5030041;28;20483;-42
2022/08/05 01:08:19;;;;;;;9.87;8.57;;;;;;;16.66;100.00;101525.75;5025247;28;20468;-44
2022/08/05 01:11:12;;;;;;;11.60;8.70;;;;;;;16.59;100.00;101517.69;5019525;28;20949;-41
2022/08/05 01:13:48;;;;;;;9.83;8.17;;;;;;;16.54;100.00;101515.69;5011424;28;20433;-42
2022/08/05 01:16:30;;;;;;;8.93;7.37;;;;;;;16.50;100.00;101521.66;5018192;28;20464;-44
2022/08/05 01:19:19;;;;;;;14.30;8.43;;;;;;;16.46;100.00;101512.34;5027233;28;20459;-43
2022/08/05 01:22:05;;;;;;;8.80;8.10;;;;;;;16.43;100.00;101516.31;5017822;28;20425;-41
2022/08/05 01:25:00;;;;;;;16.07;8.43;;;;;;;16.54;100.00;101539.06;5011148;28;20520;-42
2022/08/05 01:27:51;;;;;;;11.43;8.70;;;;;;;16.54;100.00;101514.84;5010608;28;20480;-42
2022/08/05 01:30:26;;;;;;;9.93;7.80;;;;;;;16.45;100.00;101487.31;5001367;28;20516;-41
2022/08/05 01:33:05;;;;;;;12.93;7.43;;;;;;;16.47;100.00;101469.06;5011293;28;20901;-43
2022/08/05 01:35:39;;;;;;;8.37;7.57;;;;;;;16.49;100.00;101482.31;5005432;28;20491;-43
2022/08/05 01:38:22;;;;;;;11.93;7.70;;;;;;;16.48;100.00;101459.97;5010848;28;20487;-41
2022/08/05 01:40:59;;;;;;;7.80;7.03;;;;;;;16.46;100.00;101448.56;5030660;28;20455;-42
2022/08/05 01:43:31;;;;;;;8.30;7.40;;;;;;;16.35;100.00;101443.06;5030369;28;20464;-42
2022/08/05 01:46:00;;;;;;;8.47;7.77;;;;;;;16.37;100.00;101457.13;5026575;28;20476;-42
2022/08/05 01:48:45;;;;;;;10.03;8.30;;;;;;;16.33;100.00;101472.06;5029600;28;21028;-42
2022/08/05 01:51:17;;;;;;;11.97;8.43;;;;;;;16.37;100.00;101475.97;5030603;28;20442;-43
2022/08/05 01:53:49;;;;;;;11.30;8.20;;;;;;;16.45;100.00;101473.03;5030946;28;20798;-42
2022/08/05 01:56:28;;;;;;;10.27;8.20;;;;;;;16.42;100.00;101441.16;5028265;28;20444;-42
2022/08/05 01:59:22;;;;;;;10.83;9.40;;;;;;;16.37;100.00;101435.59;5029310;28;20460;-41
2022/08/05 02:01:56;;;;;;;9.53;8.83;;;;;;;16.38;100.00;101435.38;5019143;28;20434;-42
2022/08/05 02:04:27;;;;;;;10.10;8.03;;;;;;;16.32;100.00;101430.03;5030144;28;20440;-42
2022/08/05 02:06:58;;;;;;;7.73;7.33;;;;;;;16.33;100.00;101432.53;5029609;28;20518;-43
2022/08/05 02:09:26;;;;;;;9.13;8.33;;;;;;;16.25;100.00;101405.03;5029523;28;20459;-43
2022/08/05 02:12:02;;;;;;;7.97;7.37;;;;;;;16.21;100.00;101401.13;5030162;28;20435;-42
2022/08/05 02:14:37;;;;;;;8.87;7.90;;;;;;;16.18;100.00;101390.81;5029767;28;20440;-41
2022/08/05 02:17:11;;;;;;;9.87;8.37;;;;;;;16.15;100.00;101385.88;5029067;28;20455;-43
2022/08/05 02:20:01;;;;;;;10.93;7.60;;;;;;;16.08;100.00;101369.75;5029554;28;20551;-42
2022/08/05 02:22:32;;;;;;;11.97;8.73;;;;;;;16.03;100.00;101334.63;5030001;28;20443;-42
2022/08/05 02:25:05;;;;;;;10.40;8.90;;;;;;;15.96;100.00;101309.63;5029654;28;20440;-45
2022/08/05 02:27:38;;;;;;;12.07;9.53;;;;;;;15.94;100.00;101298.25;5029434;28;21021;-44
2022/08/05 02:30:32;;;;;;;12.53;9.40;;;;;;;15.92;100.00;101348.75;5029596;28;20478;-42
2022/08/05 02:33:02;;;;;;;11.20;10.07;;;;;;;15.97;100.00;101390.13;5030416;28;20446;-45
2022/08/05 02:35:33;;;;;;;10.20;9.20;;;;;;;16.01;100.00;101403.94;5019535;28;20462;-42
2022/08/05 02:38:13;;;;;;;9.10;8.40;;;;;;;16.07;100.00;101416.53;5029539;28;20513;-41
2022/08/05 02:40:46;;;;;;;8.63;7.93;;;;;;;16.09;100.00;101401.00;5030357;28;20431;-42
2022/08/05 02:43:16;;;;;;;8.50;7.90;;;;;;;16.12;100.00;101399.75;5029894;28;20527;-43
2022/08/05 02:45:46;;;;;;;8.77;7.87;;;;;;;16.12;100.00;101399.75;5026509;28;20448;-43
2022/08/05 02:48:21;;;;;;;9.20;8.37;;;;;;;16.08;100.00;101383.22;5029431;28;20467;-42
2022/08/05 02:50:58;;;;;;;9.30;8.33;;;;;;;16.06;100.00;101355.72;5030391;28;20494;-44
2022/08/05 02:53:26;;;;;;;9.33;8.57;;;;;;;16.07;100.00;101330.44;5029709;28;20447;-41
2022/08/05 02:55:56;;;;;;;8.33;7.67;;;;;;;15.95;100.00;101316.88;5029199;28;20452;-42
2022/08/05 02:58:29;;;;;;;9.20;7.63;;;;;;;15.97;100.00;101317.50;5029504;28;20452;-43
2022/08/05 03:01:01;;;;;;;7.20;6.70;;;;;;;15.93;100.00;101310.88;5030347;28;20437;-44
2022/08/05 03:03:30;;;;;;;11.57;7.90;;;;;;;15.93;100.00;101305.50;5029930;28;20522;-41
2022/08/05 03:06:01;;;;;;;8.47;7.40;;;;;;;15.86;100.00;101309.31;5028825;28;20486;-43
2022/08/05 03:08:50;;;;;;;9.27;8.53;;;;;;;15.87;100.00;101310.94;5032201;28;21003;-41
2022/08/05 03:11:20;;;;;;;12.70;8.50;;;;;;;15.82;100.00;101341.19;5033299;28;20988;-44
2022/08/05 03:14:07;;;;;;;9.97;7.30;;;;;;;15.86;100.00;101380.03;5033562;28;20799;-43
2022/08/05 03:16:41;;;;;;;8.87;8.00;;;;;;;15.88;100.00;101380.66;5032583;28;20471;-42
2022/08/05 03:19:09;;;;;;;8.23;7.57;;;;;;;15.96;100.00;101368.81;5033240;28;20452;-42
2022/08/05 03:21:43;;;;;;;9.87;8.80;;;;;;;16.02;100.00;101357.19;5020322;28;20505;-41
2022/08/05 03:24:17;;;;;;;8.70;8.10;;;;;;;15.97;100.00;101365.91;5033331;28;20447;-41
2022/08/05 03:26:56;;;;;;;8.53;7.50;;;;;;;16.06;100.00;101361.09;5024531;28;20490;-41
2022/08/05 03:29:24;;;;;;;9.23;8.40;;;;;;;16.13;100.00;101387.97;5032584;28;20460;-41
2022/08/05 03:32:15;;;;;;;14.90;8.23;;;;;;;16.14;100.00;101398.50;5033362;28;20510;-42
2022/08/05 03:34:43;;;;;;;10.33;8.37;;;;;;;16.20;100.00;101431.78;5028131;28;20443;-43
2022/08/05 03:37:19;;;;;;;9.50;8.80;;;;;;;16.22;100.00;101427.03;5031914;28;20444;-42
2022/08/05 03:39:55;;;;;;;9.20;7.30;;;;;;;16.15;100.00;101418.16;5032804;28;20456;-40
2022/08/05 03:42:28;;;;;;;11.97;8.37;;;;;;;16.13;100.00;101418.34;5032744;28;21095;-41
2022/08/05 03:45:09;;;;;;;8.07;6.87;;;;;;;16.10;100.00;101434.13;5029647;28;20425;-41
2022/08/05 03:47:50;;;;;;;11.03;8.10;;;;;;;16.07;100.00;101421.09;5031712;28;20483;-41
2022/08/05 03:50:24;;;;;;;8.90;6.80;;;;;;;16.08;100.00;101407.44;5033177;28;20441;-43
2022/08/05 03:52:58;;;;;;;10.57;7.47;;;;;;;16.09;100.00;101411.78;5033334;28;21015;-43
2022/08/05 03:55:50;;;;;;;8.17;7.37;;;;;;;16.05;100.00;101406.00;5023880;28;20448;-44
2022/08/05 03:58:42;;;;;;;11.60;7.70;;;;;;;16.05;100.00;101418.63;5032282;28;20460;-41
2022/08/05 04:01:13;;;;;;;8.57;7.00;;;;;;;16.04;100.00;101431.25;5033071;28;20743;-43
2022/08/05 04:03:46;;;;;;;8.17;7.40;;;;;;;16.13;100.00;101434.50;5032631;28;20782;-41
2022/08/05 04:06:34;;;;;;;9.87;6.83;;;;;;;16.20;100.00;101413.78;5028178;28;20449;-42
2022/08/05 04:09:04;;;;;;;8.87;7.93;;;;;;;16.26;100.00;101420.13;5032448;28;20470;-44
2022/08/05 04:11:33;;;;;;;8.03;7.17;;;;;;;16.25;100.00;101421.19;5032453;28;20436;-42
2022/08/05 04:14:19;;;;;;;8.93;6.63;;;;;;;16.27;100.00;101432.56;5032519;28;20475;-41
2022/08/05 04:16:58;;;;;;;8.60;6.63;;;;;;;16.31;100.00;101442.66;5031696;28;20876;-42
2022/08/05 04:19:28;;;;;;;7.27;6.77;;;;;;;16.35;100.00;101451.13;5030883;28;20460;-41
2022/08/05 04:21:55;;;;;;;6.57;5.93;;;;;;;16.37;100.00;101451.75;5032722;28;20436;-41
2022/08/05 04:24:39;;;;;;;9.37;7.73;;;;;;;16.46;100.00;101448.56;5032000;28;20440;-41
2022/08/05 04:27:12;;;;;;;8.10;7.30;;;;;;;16.45;100.00;101455.03;5030727;28;21040;-42
2022/08/05 04:29:40;;;;;;;7.43;6.93;;;;;;;16.48;100.00;101462.66;5031883;28;20471;-42
2022/08/05 04:32:08;;;;;;;7.27;6.47;;;;;;;16.50;100.00;101475.88;5032285;28;20443;-42
2022/08/05 04:34:37;;;;;;;7.80;7.10;;;;;;;16.49;100.00;101476.91;5021757;28;20435;-41
2022/08/05 04:37:10;;;;;;;7.37;6.80;;;;;;;16.45;100.00;101476.56;5030965;28;20440;-41
2022/08/05 04:39:39;;;;;;;7.73;7.17;;;;;;;16.37;100.00;101470.59;5031640;28;20518;-44
2022/08/05 04:42:07;;;;;;;10.00;7.00;;;;;;;16.42;100.00;101466.22;5032109;28;20501;-41
2022/08/05 04:44:35;;;;;;;7.57;6.87;;;;;;;16.40;100.00;101462.91;5031635;28;20468;-44
2022/08/05 04:47:03;;;;;;;8.57;7.77;;;;;;;16.39;100.00;101446.97;5028008;28;20454;-43
2022/08/05 04:49:48;;;;;;;8.57;7.20;;;;;;;16.44;100.00;101444.44;5031444;28;20518;-41
2022/08/05 04:52:35;;;;;;;9.60;8.17;;;;;;;16.38;100.00;101438.06;5031748;28;20435;-43
2022/08/05 04:55:05;;;;;;;7.70;7.20;;;;;;;16.35;100.00;101435.81;5030982;28;20440;-44
2022/08/05 04:57:44;;;;;;;10.17;7.20;;;;;;;16.31;100.00;101431.91;5030373;28;20448;-41
2022/08/05 05:00:18;;;;;;;8.13;6.90;;;;;;;16.25;100.00;101454.31;5031753;28;20513;-41
2022/08/05 05:02:50;;;;;;;9.70;7.83;;;;;;;16.26;100.00;101460.50;5031631;28;20835;-43
2022/08/05 05:05:19;;;;;;;7.93;7.23;;;;;;;16.25;100.00;101464.22;5030711;28;20467;-43
2022/08/05 05:07:59;;;;;;;7.30;6.70;;;;;;;16.35;100.00;101461.91;5030327;28;20479;-42
2022/08/05 05:10:29;;;;;;;7.60;7.10;;;;;;;16.39;100.00;101471.22;5031439;28;20432;-41
2022/08/05 05:12:56;;;;;;;9.60;7.73;;;;;;;16.40;100.00;101473.66;5031599;28;20438;-45
2022/08/05 05:15:24;;;;;;;7.30;6.80;;;;;;;16.46;100.00;101477.34;5030394;28;20470;-44
2022/08/05 05:18:13;;;;;;;7.53;6.67;;;;;;;16.51;100.00;101485.63;5030428;28;20452;-41
2022/08/05 05:20:56;;;;;;;7.10;6.50;;;;;;;16.57;100.00;101479.41;5031479;28;20816;-42
2022/08/05 05:23:25;;;;;;;8.07;7.33;;;;;;;16.70;100.00;101457.75;5030555;28;20439;-41
2022/08/05 05:25:52;;;;;;;9.00;8.20;;;;;;;16.78;100.00;101445.88;5030255;28;20452;-43
2022/08/05 05:28:20;;;;;;;7.53;6.80;;;;;;;16.77;100.00;101472.00;5030384;28;20464;-42
2022/08/05 05:30:47;;;;;;;10.73;7.37;;;;;;;16.73;100.00;101476.16;5031352;28;20511;-41
2022/08/05 05:33:16;;;;;;;8.60;8.10;;;;;;;16.88;100.00;101475.81;5030131;28;20443;-41
2022/08/05 05:35:50;;;;;;;9.07;7.50;;;;;;;17.05;100.00;101491.22;5022758;28;21020;-43
2022/08/05 05:38:19;;;;;;;7.60;6.77;;;;;;;17.01;100.00;101479.25;5030356;28;21007;-40
2022/08/05 05:40:54;;;;;;;7.00;6.50;;;;;;;17.07;100.00;101464.91;5031267;28;20490;-43
2022/08/05 05:43:22;;;;;;;11.50;7.80;;;;;;;17.01;100.00;101473.03;5030725;28;20470;-42
2022/08/05 05:46:10;;;;;;;8.13;7.50;;;;;;;16.95;100.00;101460.44;5027073;28;20452;-41
2022/08/05 05:48:45;;;;;;;9.67;8.93;;;;;;;16.87;100.00;101469.66;5020000;28;20835;-43
2022/08/05 05:51:19;;;;;;;13.40;7.50;;;;;;;16.93;100.00;101474.16;5030579;28;20424;-46
2022/08/05 05:53:48;;;;;;;7.57;6.60;;;;;;;16.90;100.00;101479.16;5005253;28;20451;-43
2022/08/05 05:56:28;;;;;;;7.40;6.90;;;;;;;16.91;100.00;101480.78;5023789;28;20444;-43
2022/08/05 05:59:00;;;;;;;9.40;7.40;;;;;;;16.86;100.00;101481.44;5030343;28;20462;-43
2022/08/05 06:01:30;;;;;;;8.87;6.80;;;;;;;16.94;100.00;101493.81;5031257;28;20451;-48
2022/08/05 06:04:06;;;;;;;9.20;7.00;;;;;;;17.08;100.00;101506.16;5030597;28;20439;-43
2022/08/05 06:06:34;;;;;;;9.23;6.97;;;;;;;17.19;100.00;101489.25;5029556;28;20530;-44
2022/08/05 06:09:03;;;;;;;6.50;6.10;;;;;;;17.50;100.00;101480.22;5030266;28;20478;-46
2022/08/05 06:11:31;;;;;;;8.27;6.87;;;;;;;17.93;100.00;101482.84;5030117;28;20438;-46
2022/08/05 06:13:59;;;;;;;8.77;6.53;;;;;;;18.25;92.96;101474.31;5030435;28;20432;-44
2022/08/05 06:16:27;;;;;;;6.83;6.20;;;;;;;18.42;92.95;101488.00;5029187;28;20462;-46
2022/08/05 06:18:59;;;;;;;7.60;7.07;;;;;;;18.63;91.74;101484.81;5030345;28;20459;-45
2022/08/05 06:21:31;;;;;;;9.77;7.10;;;;;;;18.72;88.95;101474.50;5030165;28;20463;-45
2022/08/05 06:24:07;;;;;;;6.43;6.00;;;;;;;18.80;87.70;101482.25;5030027;28;20940;-47
2022/08/05 06:26:39;;;;;;;6.87;6.10;;;;;;;18.95;86.97;101485.31;5029397;28;20528;-45
2022/08/05 06:29:19;;;;;;;6.33;5.83;;;;;;;18.97;85.42;101482.38;5029209;28;20475;-45
2022/08/05 06:32:07;;;;;;;6.80;6.20;;;;;;;19.07;85.30;101483.44;5030091;28;20435;-45
2022/08/05 06:34:52;;;;;;;6.00;5.43;;;;;;;19.17;85.09;101491.00;5029687;28;21100;-45
2022/08/05 06:37:23;;;;;;;7.97;6.00;;;;;;;19.09;83.49;101488.63;5028707;28;21097;-43
2022/08/05 06:40:13;;;;;;;5.40;5.10;;;;;;;19.11;83.82;101505.44;5029917;28;20459;-42
2022/08/05 06:42:49;;;;;;;6.13;5.40;;;;;;;18.87;85.78;101488.38;5031520;28;20455;-48
2022/08/05 06:45:19;;;;;;;6.40;5.67;;;;;;;18.73;86.55;101489.63;5030349;28;20508;-44
2022/08/05 06:47:48;;;;;;;5.53;5.03;;;;;;;18.46;85.16;101494.56;5032178;28;20432;-46
2022/08/05 06:50:35;;;;;;;5.67;5.33;;;;;;;18.15;87.55;101498.34;5033783;28;20446;-46
2022/08/05 06:53:03;;;;;;;6.63;5.87;;;;;;;18.00;89.31;101506.03;5033309;28;20447;-46
2022/08/05 06:55:50;;;;;;;6.70;6.20;;;;;;;17.90;90.42;101510.28;5032706;28;20497;-42
2022/08/05 06:58:18;;;;;;;11.00;5.63;;;;;;;17.85;91.55;101502.06;5032679;28;20463;-47
2022/08/05 07:01:01;;;;;;;14.17;5.40;;;;;;;17.81;91.94;101512.47;5033561;28;20795;-43
2022/08/05 07:03:29;;;;;;;6.23;5.60;;;;;;;17.74;92.83;101513.59;5033114;28;20980;-42
2022/08/05 07:06:00;;;;;;;6.30;5.80;;;;;;;17.78;93.14;101512.09;5032283;28;20452;-45
2022/08/05 07:08:40;;;;;;;7.20;5.67;;;;;;;17.73;93.74;101520.88;5032405;28;20475;-44
2022/08/05 07:11:10;;;;;;;5.87;5.40;;;;;;;17.71;93.73;101514.06;5033135;28;20436;-48
2022/08/05 07:19:33;;;;;;;7.43;5.93;;;;;;;17.89;93.68;101532.94;5032788;28;22338;-44
2022/08/05 07:22:21;;;;;;;6.20;5.70;;;;;;;18.10;92.41;101519.78;5032813;28;20455;-46
2022/08/05 07:24:57;;;;;;;5.40;5.00;;;;;;;18.14;90.56;101531.78;5033075;28;20443;-43
2022/08/05 07:27:26;;;;;;;5.43;4.97;;;;;;;18.22;89.76;101530.63;5032109;28;20451;-44
2022/08/05 07:30:14;;;;;;;6.17;5.57;;;;;;;18.23;90.03;101521.50;5013344;28;20477;-43
2022/08/05 07:32:54;;;;;;;5.80;5.50;;;;;;;18.18;90.49;101529.47;5014022;28;20425;-48
2022/08/05 07:35:24;;;;;;;5.77;5.10;;;;;;;18.23;89.80;101518.78;5012612;28;20534;-43
2022/08/05 07:38:12;;;;;;;5.53;5.03;;;;;;;18.28;88.34;101510.81;5016061;28;20455;-44
2022/08/05 07:41:00;;;;;;;6.00;5.00;;;;;;;18.17;89.16;101515.13;5033050;28;20980;-42
2022/08/05 07:43:49;;;;;;;5.50;5.00;;;;;;;18.25;90.32;101522.09;5033691;28;20415;-45
2022/08/05 07:46:17;;;;;;;5.47;5.07;;;;;;;18.21;87.54;101524.44;5029470;28;20443;-41
2022/08/05 07:48:52;;;;;;;7.37;5.37;;;;;;;18.20;88.22;101521.94;5032793;28;21005;-47
2022/08/05 07:51:32;;;;;;;5.83;4.80;;;;;;;18.10;88.26;101519.78;5032378;28;20515;-40
2022/08/05 07:54:05;;;;;;;5.20;4.70;;;;;;;18.06;88.14;101518.63;5031799;28;20512;-42
2022/08/05 07:56:35;;;;;;;5.77;5.27;;;;;;;18.13;87.34;101515.81;5031812;28;20459;-46
2022/08/05 07:59:24;;;;;;;6.90;5.27;;;;;;;18.28;88.31;101526.22;5031956;28;20456;-45
2022/08/05 08:02:08;;;;;;;6.17;5.37;;;;;;;18.29;84.33;101517.06;5032827;28;20886;-43
2022/08/05 08:04:44;;;;;;;9.07;4.93;;;;;;;18.38;84.99;101510.28;5032303;28;20436;-47
2022/08/05 08:07:12;;;;;;;6.90;4.83;;;;;;;18.34;83.62;101509.91;5031650;28;20834;-44
2022/08/05 08:09:40;;;;;;;7.20;4.97;;;;;;;18.34;82.89;101501.00;5032337;28;20562;-44
2022/08/05 08:12:07;;;;;;;5.30;4.80;;;;;;;18.54;83.93;101507.81;5032529;28;20827;-42
2022/08/05 08:14:56;;;;;;;5.83;5.03;;;;;;;18.67;83.00;101490.56;5032704;28;20439;-45
2022/08/05 08:17:29;;;;;;;5.13;4.83;;;;;;;18.76;81.72;101498.09;5031354;28;20467;-44
2022/08/05 08:19:57;;;;;;;5.60;4.50;;;;;;;18.78;80.69;101489.78;5032222;28;20829;-44
2022/08/05 08:22:50;;;;;;;7.13;4.33;;;;;;;18.89;78.71;101501.66;5017599;28;20940;-45
2022/08/05 08:25:19;;;;;;;7.20;4.27;;;;;;;19.00;78.50;101493.53;5031724;28;20439;-46
2022/08/05 08:28:06;;;;;;;5.80;4.10;;;;;;;19.05;77.06;101491.00;5031093;28;20460;-45
2022/08/05 08:30:46;;;;;;;4.50;4.10;;;;;;;18.87;75.39;101499.19;5032182;28;21029;-42
2022/08/05 08:33:17;;;;;;;4.70;4.30;;;;;;;19.04;74.75;101485.81;5031795;28;20443;-45
2022/08/05 08:35:46;;;;;;;4.43;4.13;;;;;;;19.05;74.56;101484.75;5031081;28;20443;-45
2022/08/05 08:38:30;;;;;;;6.93;4.30;;;;;;;19.24;75.63;101492.50;5031250;28;20459;-48
2022/08/05 08:41:05;;;;;;;4.17;3.97;;;;;;;19.39;73.53;101481.22;5032404;28;20446;-45
2022/08/05 08:43:34;;;;;;;4.10;3.90;;;;;;;19.45;71.60;101496.53;5031590;28;20645;-45
2022/08/05 08:46:27;;;;;;;4.50;4.30;;;;;;;19.72;72.47;101499.53;5028256;28;20444;-41
2022/08/05 08:48:55;;;;;;;4.60;4.30;;;;;;;19.94;72.31;101495.13;5031583;28;20460;-47
2022/08/05 08:51:38;;;;;;;6.00;4.70;;;;;;;19.99;69.50;101500.66;5031600;28;20470;-45
2022/08/05 08:54:26;;;;;;;4.73;4.33;;;;;;;19.72;68.94;101500.38;5031603;28;20817;-43
2022/08/05 08:56:54;;;;;;;4.77;4.47;;;;;;;19.96;70.27;101492.19;5030918;28;20451;-42
2022/08/05 08:59:24;;;;;;;5.67;5.00;;;;;;;20.00;70.05;101499.59;5031083;28;20464;-44
2022/08/05 09:02:04;;;;;;;4.97;4.53;;;;;;;20.05;68.91;101496.16;5031680;28;20427;-45
2022/08/05 09:04:36;;;;;;;5.10;4.67;;;;;;;20.06;68.83;101492.41;5030573;28;20439;-46
2022/08/05 09:07:24;;;;;;;4.50;4.17;;;;;;;20.12;67.63;101500.38;5030175;28;20471;-42
2022/08/05 09:09:56;;;;;;;4.93;4.63;;;;;;;20.27;68.48;101503.41;5031121;28;20484;-49
2022/08/05 09:12:25;;;;;;;5.27;4.87;;;;;;;20.48;68.15;101503.78;5031237;28;20427;-45
2022/08/05 09:14:56;;;;;;;6.57;4.57;;;;;;;20.54;67.13;101506.34;5030849;28;20442;-42
2022/08/05 09:17:34;;;;;;;4.67;4.47;;;;;;;20.48;66.79;101511.91;5021150;28;20461;-45
2022/08/05 09:20:13;;;;;;;4.80;4.53;;;;;;;20.87;67.67;101503.69;5011615;28;20551;-43
2022/08/05 09:23:10;;;;;;;4.90;4.60;;;;;;;21.01;65.85;101506.88;5011922;28;20448;-41
2022/08/05 09:25:50;;;;;;;5.50;5.20;;;;;;;20.96;65.15;101504.09;5010319;28;20452;-43
2022/08/05 09:28:31;;;;;;;7.23;5.10;;;;;;;20.64;66.47;101506.50;5017873;28;20463;-45
2022/08/05 09:31:03;;;;;;;4.90;4.50;;;;;;;20.45;65.68;101523.25;5031062;28;20475;-45
2022/08/05 09:33:54;;;;;;;4.60;4.23;;;;;;;20.77;65.84;101517.06;5031221;28;20416;-45
2022/08/05 09:36:24;;;;;;;5.03;4.73;;;;;;;20.87;63.29;101519.13;5029995;28;20562;-47
2022/08/05 09:39:01;;;;;;;5.07;4.87;;;;;;;21.03;64.48;101518.28;5030458;28;20972;-46
2022/08/05 09:41:29;;;;;;;6.80;5.20;;;;;;;21.23;63.03;101525.97;5030635;28;20439;-48
2022/08/05 09:44:04;;;;;;;5.37;5.07;;;;;;;21.26;63.51;101515.44;5030542;28;20440;-45
2022/08/05 09:46:34;;;;;;;5.67;5.30;;;;;;;21.18;62.37;101523.97;5027326;28;20542;-42
2022/08/05 09:49:05;;;;;;;5.47;5.17;;;;;;;21.08;64.00;101531.13;5030380;28;20459;-43
2022/08/05 09:51:47;;;;;;;5.33;4.83;;;;;;;21.34;62.98;101528.59;5018030;28;20872;-46
2022/08/05 09:54:17;;;;;;;4.90;4.50;;;;;;;21.14;62.40;101527.44;5030479;28;20446;-42
2022/08/05 09:56:56;;;;;;;4.57;4.37;;;;;;;20.99;63.06;101517.16;5021740;28;20452;-45
2022/08/05 09:59:28;;;;;;;4.90;4.80;;;;;;;20.94;63.34;101526.00;5022097;28;20455;-46
2022/08/05 10:02:03;;;;;;;5.47;4.37;;;;;;;20.98;62.71;101513.63;5030616;28;20450;-46
2022/08/05 10:04:39;;;;;;;4.73;4.33;;;;;;;21.28;62.00;101505.16;5030344;28;20787;-44
2022/08/05 10:07:07;;;;;;;5.10;4.80;;;;;;;21.42;60.20;101505.63;5029454;28;20448;-45
2022/08/05 10:09:55;;;;;;;4.90;4.53;;;;;;;21.71;60.51;101509.03;5030160;28;20467;-45
2022/08/05 10:12:43;;;;;;;4.13;3.77;;;;;;;21.83;57.91;101507.00;5030780;28;20431;-42
2022/08/05 10:15:22;;;;;;;4.50;4.07;;;;;;;21.88;59.20;101507.09;5029470;28;20431;-44
2022/08/05 10:18:13;;;;;;;3.97;3.67;;;;;;;21.97;57.98;101511.00;5028197;28;20431;-42
2022/08/05 10:20:47;;;;;;;4.47;3.40;;;;;;;22.06;57.08;101514.91;5030384;28;20895;-43
2022/08/05 10:23:18;;;;;;;3.63;3.17;;;;;;;22.09;57.68;101522.56;5030356;28;20497;-42
2022/08/05 10:26:08;;;;;;;3.13;2.93;;;;;;;22.20;56.22;101528.94;5029078;28;20486;-44
2022/08/05 10:28:41;;;;;;;3.23;2.93;;;;;;;22.01;57.72;101531.16;5029636;28;20546;-43
2022/08/05 10:31:08;;;;;;;2.77;2.57;;;;;;;22.06;56.58;101536.66;5030393;28;20537;-45
2022/08/05 10:33:56;;;;;;;2.97;2.77;;;;;;;22.13;58.06;101542.72;5007113;28;20420;-42
2022/08/05 10:36:26;;;;;;;4.13;3.03;;;;;;;22.28;59.50;101544.78;5029085;28;20448;-43
2022/08/05 10:39:00;;;;;;;2.77;2.57;;;;;;;22.23;59.58;101540.09;5029979;28;20478;-45
2022/08/05 10:41:43;;;;;;;3.17;2.73;;;;;;;22.11;59.38;101531.28;5029988;28;20435;-43
2022/08/05 10:44:18;;;;;;;3.37;3.17;;;;;;;21.85;59.07;101535.53;5029970;28;20817;-43
2022/08/05 10:46:48;;;;;;;4.37;3.97;;;;;;;21.62;60.44;101538.50;5026720;28;20482;-42
2022/08/05 10:49:17;;;;;;;4.87;3.53;;;;;;;21.27;60.80;101538.78;5029452;28;20806;-45
2022/08/05 10:51:57;;;;;;;3.40;3.20;;;;;;;21.09;61.81;101533.59;5030086;28;20841;-42
2022/08/05 10:55:01;;;;;;;5.43;3.37;;;;;;;20.87;63.18;101548.94;5029775;28;20489;-44
2022/08/05 10:57:29;;;;;;;5.43;3.93;;;;;;;20.81;65.26;101547.22;5029134;28;20554;-44
2022/08/05 11:00:15;;;;;;;8.67;4.37;;;;;;;20.91;66.77;101548.19;5029703;28;20913;-44
2022/08/05 11:03:09;;;;;;;4.47;4.07;;;;;;;21.04;69.17;101535.38;5015984;28;20483;-42
2022/08/05 11:06:04;;;;;;;4.00;3.70;;;;;;;21.19;66.70;101539.19;5022897;28;20459;-43
2022/08/05 11:08:36;;;;;;;3.70;3.50;;;;;;;20.76;64.42;101536.25;5029320;28;20483;-42
2022/08/05 11:11:33;;;;;;;3.60;3.30;;;;;;;20.59;64.91;101540.84;5030012;28;20506;-45
2022/08/05 11:14:25;;;;;;;4.00;3.80;;;;;;;20.57;66.37;101538.38;5013044;28;20439;-43
2022/08/05 11:17:29;;;;;;;3.50;3.30;;;;;;;20.80;67.04;101546.38;5025289;28;20861;-44
2022/08/05 11:20:41;;;;;;;3.07;2.97;;;;;;;20.99;62.97;101546.97;5029782;28;20463;-44
2022/08/05 11:23:35;;;;;;;2.80;2.60;;;;;;;21.16;62.66;101550.53;5029706;28;20447;-42
2022/08/05 11:26:25;;;;;;;2.93;2.73;;;;;;;21.34;63.54;101544.88;5028627;28;20451;-42
2022/08/05 11:28:57;;;;;;;3.30;3.00;;;;;;;21.74;62.16;101533.78;5030481;28;20452;-46
2022/08/05 11:31:41;;;;;;;3.57;3.27;;;;;;;22.07;63.61;101538.31;5032986;28;20529;-43
2022/08/05 11:34:36;;;;;;;2.90;2.70;;;;;;;22.10;60.91;101540.50;5032650;28;20507;-43
2022/08/05 11:37:04;;;;;;;2.83;2.73;;;;;;;22.51;60.26;101542.59;5026065;28;20443;-43
2022/08/05 11:39:52;;;;;;;3.90;3.30;;;;;;;22.75;58.89;101542.31;5032773;28;20486;-45
2022/08/05 11:42:33;;;;;;;5.33;3.50;;;;;;;23.07;58.35;101548.59;5032426;28;20522;-45
2022/08/05 11:45:07;;;;;;;3.60;3.30;;;;;;;22.89;55.16;101540.81;5029642;28;20435;-43
2022/08/05 11:47:53;;;;;;;4.17;2.73;;;;;;;22.45;55.18;101554.50;5031735;28;20427;-42
2022/08/05 11:50:21;;;;;;;3.70;3.10;;;;;;;22.49;56.00;101544.75;5033219;28;20428;-42
2022/08/05 11:52:49;;;;;;;3.33;3.13;;;;;;;22.39;57.83;101551.97;5032930;28;20570;-42
2022/08/05 11:55:24;;;;;;;3.30;3.10;;;;;;;22.72;58.04;101562.69;5032601;28;20435;-43
2022/08/05 11:58:04;;;;;;;3.20;2.90;;;;;;;23.12;59.07;101565.75;5031380;28;20475;-42
2022/08/05 12:00:41;;;;;;;3.50;3.20;;;;;;;23.44;58.47;101568.50;5033066;28;20477;-42
2022/08/05 12:03:19;;;;;;;3.43;2.97;;;;;;;23.18;55.51;101574.00;5031343;28;20447;-45
2022/08/05 12:06:02;;;;;;;3.53;2.90;;;;;;;22.98;54.73;101577.34;5031316;28;20475;-43
2022/08/05 12:08:41;;;;;;;3.23;3.13;;;;;;;23.01;56.87;101583.09;5031235;28;20534;-43